Time;durP1;ratioP1;P1;durP2;ratioP2;P2;SDS_P1;SDS_P2;PMS_P1;PMS_P2;Temp;Humidity;BMP_temperature;BMP_pressure;BME280_temperature;BME280_humidity;BME280_pressure;Samples;Min_cycle;Max_cycle;Signal;HPM_P1;HPM_P2
2023/04/22 00:00:14;;;;;;;7.15;5.03;;;;;;;;;;5037795;28;20071;-80
2023/04/22 00:02:40;;;;;;;4.68;4.22;;;;;;;;;;5037908;28;20048;-80
2023/04/22 00:05:06;;;;;;;6.38;5.13;;;;;;;;;;5026473;28;20071;-80
2023/04/22 00:07:32;;;;;;;5.75;4.65;;;;;;;;;;5020211;28;20182;-80
2023/04/22 00:09:59;;;;;;;7.07;5.18;;;;;;;;;;5017663;28;20486;-79
2023/04/22 00:12:25;;;;;;;7.18;5.35;;;;;;;;;;5043598;28;20044;-80
2023/04/22 00:14:51;;;;;;;6.32;5.47;;;;;;;;;;5053036;28;20473;-80
2023/04/22 00:17:17;;;;;;;6.50;5.57;;;;;;;;;;5022260;28;20140;-80
2023/04/22 00:19:43;;;;;;;7.93;5.55;;;;;;;;;;5044138;28;20488;-80
2023/04/22 00:22:10;;;;;;;6.78;5.68;;;;;;;;;;5031729;28;20136;-80
2023/04/22 00:24:36;;;;;;;7.55;5.70;;;;;;;;;;5037127;28;20389;-80
2023/04/22 00:27:02;;;;;;;6.28;5.57;;;;;;;;;;5024480;28;20045;-80
2023/04/22 00:29:28;;;;;;;7.00;5.40;;;;;;;;;;5026308;28;20049;-80
2023/04/22 00:31:54;;;;;;;7.10;5.60;;;;;;;;;;5023581;28;20050;-80
2023/04/22 00:34:20;;;;;;;7.22;5.63;;;;;;;;;;5036360;28;20489;-80
2023/04/22 00:36:46;;;;;;;7.10;5.13;;;;;;;;;;5043357;28;20049;-79
2023/04/22 00:39:13;;;;;;;4.90;4.40;;;;;;;;;;5038993;28;20477;-79
2023/04/22 00:41:42;;;;;;;7.75;5.25;;;;;;;;;;5024991;28;20132;-79
2023/04/22 00:44:09;;;;;;;6.50;5.63;;;;;;;;;;5043072;28;20053;-79
2023/04/22 00:46:36;;;;;;;7.80;5.90;;;;;;;;;;5028965;28;20046;-79
2023/04/22 00:49:02;;;;;;;6.80;6.03;;;;;;;;;;5038934;28;20072;-79
2023/04/22 00:51:28;;;;;;;9.68;6.15;;;;;;;;;;5018330;28;21449;-79
2023/04/22 00:53:54;;;;;;;7.75;6.03;;;;;;;;;;5026282;28;20129;-79
2023/04/22 00:56:21;;;;;;;8.05;6.60;;;;;;;;;;5020298;28;20037;-78
2023/04/22 00:58:47;;;;;;;7.53;6.50;;;;;;;;;;5052032;28;20057;-80
2023/04/22 01:01:13;;;;;;;8.70;7.07;;;;;;;;;;5064942;28;20110;-79
2023/04/22 01:03:40;;;;;;;8.02;7.10;;;;;;;;;;5049316;28;20546;-79
2023/04/22 01:06:06;;;;;;;7.88;6.97;;;;;;;;;;5046504;28;20664;-80
2023/04/22 01:08:32;;;;;;;8.75;7.30;;;;;;;;;;5046392;28;20589;-79
2023/04/22 01:10:59;;;;;;;9.68;7.47;;;;;;;;;;5034756;28;20040;-79
2023/04/22 01:13:25;;;;;;;8.82;7.03;;;;;;;;;;5048840;28;20044;-79
2023/04/22 01:15:52;;;;;;;8.63;7.32;;;;;;;;;;5044250;28;20044;-79
2023/04/22 01:18:18;;;;;;;7.28;6.25;;;;;;;;;;5043148;28;20051;-79
2023/04/22 01:20:45;;;;;;;8.48;6.70;;;;;;;;;;5063013;28;20480;-79
2023/04/22 01:23:17;;;;;;;9.15;6.47;;;;;;;;;;5054993;28;20547;-79
2023/04/22 01:25:43;;;;;;;7.78;6.57;;;;;;;;;;5037933;28;20040;-79
2023/04/22 01:28:09;;;;;;;8.52;6.40;;;;;;;;;;5053364;28;20514;-79
2023/04/22 01:30:35;;;;;;;7.55;6.32;;;;;;;;;;5033865;28;20041;-79
2023/04/22 01:33:01;;;;;;;6.15;5.40;;;;;;;;;;5046788;28;20128;-79
2023/04/22 01:35:29;;;;;;;7.57;5.95;;;;;;;;;;5053401;28;20049;-79
2023/04/22 01:37:56;;;;;;;8.98;6.40;;;;;;;;;;5035002;28;20049;-79
2023/04/22 01:40:23;;;;;;;7.40;6.35;;;;;;;;;;5034909;28;20098;-79
2023/04/22 01:42:49;;;;;;;8.13;6.47;;;;;;;;;;5034316;28;20041;-79
2023/04/22 01:45:16;;;;;;;9.02;6.63;;;;;;;;;;5044250;28;20041;-79
2023/04/22 01:47:43;;;;;;;9.02;7.20;;;;;;;;;;5057827;28;20044;-79
2023/04/22 01:50:09;;;;;;;8.05;6.78;;;;;;;;;;5048353;28;20052;-79
2023/04/22 01:52:36;;;;;;;11.27;7.80;;;;;;;;;;5042795;28;20048;-79
2023/04/22 01:55:02;;;;;;;10.43;8.15;;;;;;;;;;5040226;28;20138;-79
2023/04/22 01:57:28;;;;;;;10.60;8.13;;;;;;;;;;5060161;28;20061;-79
2023/04/22 01:59:54;;;;;;;10.00;8.80;;;;;;;;;;5046701;28;20049;-79
2023/04/22 02:02:20;;;;;;;10.45;8.60;;;;;;;;;;5044689;28;20049;-79
2023/04/22 02:04:46;;;;;;;9.63;8.30;;;;;;;;;;5041941;28;20126;-79
2023/04/22 02:07:12;;;;;;;9.65;8.50;;;;;;;;;;5034017;28;20067;-79
2023/04/22 02:09:38;;;;;;;10.48;8.48;;;;;;;;;;5033263;28;20052;-79
2023/04/22 02:12:04;;;;;;;11.15;8.70;;;;;;;;;;5055816;28;20128;-79
2023/04/22 02:14:30;;;;;;;10.48;8.75;;;;;;;;;;5047715;28;20048;-79
2023/04/22 02:16:56;;;;;;;10.10;8.45;;;;;;;;;;5041803;28;20205;-79
2023/04/22 02:19:23;;;;;;;10.13;8.98;;;;;;;;;;5040993;28;20041;-79
2023/04/22 02:21:49;;;;;;;10.82;9.02;;;;;;;;;;5036266;28;20481;-79
2023/04/22 02:24:15;;;;;;;9.23;8.15;;;;;;;;;;5061950;28;20053;-79
2023/04/22 02:26:42;;;;;;;11.30;9.52;;;;;;;;;;5039024;28;20068;-78
2023/04/22 02:29:08;;;;;;;11.02;9.48;;;;;;;;;;5047111;28;20041;-79
2023/04/22 02:31:34;;;;;;;9.50;8.50;;;;;;;;;;5042854;28;20083;-79
2023/04/22 02:34:00;;;;;;;11.82;9.23;;;;;;;;;;5061474;28;20049;-79
2023/04/22 02:36:27;;;;;;;11.40;9.70;;;;;;;;;;5048869;28;20068;-79
2023/04/22 02:38:53;;;;;;;12.27;8.77;;;;;;;;;;5081119;28;20450;-79
2023/04/22 02:41:19;;;;;;;12.68;9.48;;;;;;;;;;5035641;28;20469;-80
2023/04/22 02:43:46;;;;;;;11.82;9.82;;;;;;;;;;5050629;28;20072;-79
2023/04/22 02:46:14;;;;;;;11.43;9.00;;;;;;;;;;5033005;28;20405;-79
2023/04/22 02:48:40;;;;;;;10.57;8.68;;;;;;;;;;5034678;28;20080;-79
2023/04/22 02:51:06;;;;;;;13.48;9.52;;;;;;;;;;5058801;28;20086;-79
2023/04/22 02:53:32;;;;;;;10.80;9.45;;;;;;;;;;5060085;28;20045;-79
2023/04/22 02:55:58;;;;;;;11.20;8.95;;;;;;;;;;5067673;28;20131;-79
2023/04/22 02:58:25;;;;;;;11.25;9.82;;;;;;;;;;5038778;28;20186;-79
2023/04/22 03:00:51;;;;;;;10.57;8.95;;;;;;;;;;5066725;28;20044;-79
2023/04/22 03:03:17;;;;;;;10.10;8.93;;;;;;;;;;5042432;28;20127;-79
2023/04/22 03:05:43;;;;;;;10.55;9.10;;;;;;;;;;5055671;28;20040;-79
2023/04/22 03:08:10;;;;;;;10.15;8.95;;;;;;;;;;5067720;28;20036;-79
2023/04/22 03:10:36;;;;;;;10.55;8.93;;;;;;;;;;5035131;28;20045;-79
2023/04/22 03:13:02;;;;;;;9.65;8.65;;;;;;;;;;5063585;28;20401;-79
2023/04/22 03:15:28;;;;;;;9.77;8.77;;;;;;;;;;5055661;28;20041;-79
2023/04/22 03:17:54;;;;;;;9.95;8.88;;;;;;;;;;5068182;28;20040;-79
2023/04/22 03:20:20;;;;;;;10.82;8.27;;;;;;;;;;5062925;28;20043;-79
2023/04/22 03:22:46;;;;;;;9.38;7.85;;;;;;;;;;5059779;28;20106;-79
2023/04/22 03:25:12;;;;;;;9.10;7.88;;;;;;;;;;5064614;28;20480;-79
2023/04/22 03:27:38;;;;;;;9.65;7.90;;;;;;;;;;5060249;28;20048;-79
2023/04/22 03:30:04;;;;;;;9.07;8.15;;;;;;;;;;5038559;28;20036;-79
2023/04/22 03:32:31;;;;;;;8.85;7.72;;;;;;;;;;5063712;28;20550;-79
2023/04/22 03:34:57;;;;;;;9.20;7.95;;;;;;;;;;5035445;28;20052;-79
2023/04/22 03:37:22;;;;;;;10.63;8.93;;;;;;;;;;5036810;28;20041;-79
2023/04/22 03:39:48;;;;;;;9.52;8.55;;;;;;;;;;5069485;28;20384;-79
2023/04/22 03:42:14;;;;;;;11.13;8.68;;;;;;;;;;5048883;28;20159;-79
2023/04/22 03:44:41;;;;;;;10.00;8.95;;;;;;;;;;5047873;28;20049;-79
2023/04/22 03:47:07;;;;;;;12.50;9.52;;;;;;;;;;5034636;28;20075;-79
2023/04/22 03:49:33;;;;;;;10.30;8.90;;;;;;;;;;5059055;28;20044;-79
2023/04/22 03:51:59;;;;;;;9.30;8.30;;;;;;;;;;5055760;28;20040;-79
2023/04/22 03:54:26;;;;;;;10.90;9.18;;;;;;;;;;5064465;28;20075;-79
2023/04/22 03:56:52;;;;;;;9.82;8.68;;;;;;;;;;5058923;28;20053;-79
2023/04/22 03:59:18;;;;;;;10.20;9.02;;;;;;;;;;5044211;28;20413;-79
2023/04/22 04:01:47;;;;;;;10.63;9.25;;;;;;;;;;5034061;28;20078;-78
2023/04/22 04:04:13;;;;;;;10.45;9.27;;;;;;;;;;5041722;28;20049;-79
2023/04/22 04:06:39;;;;;;;12.20;9.75;;;;;;;;;;5059016;28;20457;-79
2023/04/22 04:09:05;;;;;;;13.57;10.10;;;;;;;;;;5042250;28;20045;-79
2023/04/22 04:11:31;;;;;;;11.40;9.65;;;;;;;;;;5060734;28;20041;-79
2023/04/22 04:13:57;;;;;;;10.45;9.40;;;;;;;;;;5067117;28;20168;-79
2023/04/22 04:16:23;;;;;;;11.25;9.40;;;;;;;;;;5055195;28;20613;-78
2023/04/22 04:18:50;;;;;;;11.35;9.63;;;;;;;;;;5039764;28;20052;-79
2023/04/22 04:21:16;;;;;;;11.07;9.93;;;;;;;;;;5034897;28;20051;-79
2023/04/22 04:23:42;;;;;;;11.70;10.15;;;;;;;;;;5055178;28;20048;-79
2023/04/22 04:26:08;;;;;;;12.23;10.82;;;;;;;;;;5048290;28;20041;-79
2023/04/22 04:28:34;;;;;;;12.30;9.85;;;;;;;;;;5037870;28;20053;-79
2023/04/22 04:31:04;;;;;;;12.27;10.90;;;;;;;;;;5055381;28;20392;-80
2023/04/22 04:33:35;;;;;;;13.65;10.38;;;;;;;;;;5037304;28;20044;-79
2023/04/22 04:36:02;;;;;;;12.75;11.13;;;;;;;;;;5049571;28;20063;-79
2023/04/22 04:38:28;;;;;;;13.32;10.90;;;;;;;;;;5050814;28;20114;-79
2023/04/22 04:40:54;;;;;;;13.50;11.10;;;;;;;;;;5052346;28;20110;-79
2023/04/22 04:43:24;;;;;;;12.88;11.45;;;;;;;;;;5033307;28;20052;-79
2023/04/22 04:45:50;;;;;;;13.98;11.63;;;;;;;;;;5034837;28;20045;-80
2023/04/22 04:48:18;;;;;;;12.98;11.15;;;;;;;;;;5071191;28;20119;-80
2023/04/22 04:50:45;;;;;;;14.27;12.15;;;;;;;;;;5072622;28;20045;-80
2023/04/22 04:53:11;;;;;;;14.43;11.23;;;;;;;;;;5069861;28;20094;-80
2023/04/22 04:55:38;;;;;;;14.60;11.15;;;;;;;;;;5063897;28;20467;-80
2023/04/22 04:58:05;;;;;;;13.20;10.50;;;;;;;;;;5065551;28;20085;-80
2023/04/22 05:00:31;;;;;;;12.38;10.48;;;;;;;;;;5037047;28;20056;-81
2023/04/22 05:02:57;;;;;;;12.77;10.35;;;;;;;;;;5036847;28;20057;-80
2023/04/22 05:05:23;;;;;;;11.60;10.07;;;;;;;;;;5034941;28;20481;-80
2023/04/22 05:07:50;;;;;;;11.65;10.20;;;;;;;;;;5054582;28;20037;-80
2023/04/22 05:10:16;;;;;;;11.07;9.85;;;;;;;;;;5057280;28;20127;-80
2023/04/22 05:12:43;;;;;;;12.15;10.35;;;;;;;;;;5041508;28;20119;-79
2023/04/22 05:15:09;;;;;;;12.73;10.57;;;;;;;;;;5039276;28;20040;-79
2023/04/22 05:17:35;;;;;;;11.85;10.60;;;;;;;;;;5046429;28;20118;-81
2023/04/22 05:20:01;;;;;;;12.27;10.10;;;;;;;;;;5048744;28;20056;-79
2023/04/22 05:22:27;;;;;;;12.13;9.77;;;;;;;;;;5059036;28;20385;-78
2023/04/22 05:24:53;;;;;;;12.57;10.13;;;;;;;;;;5033249;28;20041;-79
2023/04/22 05:27:19;;;;;;;12.15;10.35;;;;;;;;;;5054024;28;20064;-79
2023/04/22 05:29:45;;;;;;;12.85;10.98;;;;;;;;;;5040182;28;20029;-80
2023/04/22 05:32:11;;;;;;;12.38;10.98;;;;;;;;;;5039497;28;20485;-80
2023/04/22 05:34:38;;;;;;;12.93;10.90;;;;;;;;;;5054424;28;20052;-80
2023/04/22 05:37:04;;;;;;;14.80;11.82;;;;;;;;;;5052372;28;20037;-80
2023/04/22 05:39:30;;;;;;;13.57;10.88;;;;;;;;;;5034883;28;20134;-80
2023/04/22 05:41:56;;;;;;;15.52;12.63;;;;;;;;;;5066654;28;20479;-80
2023/04/22 05:44:22;;;;;;;15.38;12.50;;;;;;;;;;5055677;28;20052;-80
2023/04/22 05:46:49;;;;;;;13.73;11.38;;;;;;;;;;5052804;28;20047;-79
2023/04/22 05:49:15;;;;;;;13.95;12.35;;;;;;;;;;5058813;28;20369;-79
2023/04/22 05:51:42;;;;;;;13.65;12.02;;;;;;;;;;5048017;28;20041;-80
2023/04/22 05:54:08;;;;;;;15.48;13.00;;;;;;;;;;5050290;28;20087;-79
2023/04/22 05:56:34;;;;;;;13.68;12.15;;;;;;;;;;5045788;28;20037;-79
2023/04/22 05:59:00;;;;;;;14.38;12.32;;;;;;;;;;5042047;28;20049;-79
2023/04/22 06:01:26;;;;;;;13.95;12.45;;;;;;;;;;5037843;28;20132;-80
2023/04/22 06:03:52;;;;;;;14.02;12.52;;;;;;;;;;5047022;28;20124;-80
2023/04/22 06:06:18;;;;;;;13.68;12.18;;;;;;;;;;5033993;28;20400;-80
2023/04/22 06:08:44;;;;;;;15.93;12.95;;;;;;;;;;5046271;28;20107;-79
2023/04/22 06:11:10;;;;;;;15.10;12.85;;;;;;;;;;5067224;28;20112;-79
2023/04/22 06:13:36;;;;;;;15.50;13.00;;;;;;;;;;5061872;28;20130;-79
2023/04/22 06:16:03;;;;;;;14.15;12.65;;;;;;;;;;5049135;28;20092;-79
2023/04/22 06:18:31;;;;;;;14.05;11.35;;;;;;;;;;5057418;28;20559;-79
2023/04/22 06:20:57;;;;;;;14.10;12.20;;;;;;;;;;5051171;28;20056;-79
2023/04/22 06:23:23;;;;;;;13.75;12.27;;;;;;;;;;5038494;28;20404;-79
2023/04/22 06:25:49;;;;;;;16.13;13.68;;;;;;;;;;5041772;28;20041;-79
2023/04/22 06:28:15;;;;;;;15.18;12.95;;;;;;;;;;5042392;28;20163;-79
2023/04/22 06:30:41;;;;;;;16.17;14.18;;;;;;;;;;5071142;28;20051;-79
2023/04/22 06:33:07;;;;;;;15.80;13.38;;;;;;;;;;5064904;28;20049;-80
2023/04/22 06:35:33;;;;;;;15.98;13.85;;;;;;;;;;5056751;28;20045;-80
2023/04/22 06:37:59;;;;;;;15.30;13.10;;;;;;;;;;5058270;28;20254;-79
2023/04/22 06:40:25;;;;;;;17.02;13.95;;;;;;;;;;5060660;28;20504;-80
2023/04/22 06:42:51;;;;;;;17.40;14.73;;;;;;;;;;5063059;28;20128;-80
2023/04/22 06:45:17;;;;;;;16.27;13.63;;;;;;;;;;5062330;28;20124;-80
2023/04/22 06:47:43;;;;;;;17.85;14.32;;;;;;;;;;5060413;28;20040;-79
2023/04/22 06:50:09;;;;;;;18.15;14.73;;;;;;;;;;5058403;28;20447;-79
2023/04/22 06:52:36;;;;;;;16.80;13.48;;;;;;;;;;5043946;28;20057;-80
2023/04/22 06:55:02;;;;;;;16.42;14.05;;;;;;;;;;5048819;28;20100;-80
2023/04/22 06:57:28;;;;;;;18.35;14.25;;;;;;;;;;5036130;28;20061;-79
2023/04/22 06:59:54;;;;;;;16.15;13.73;;;;;;;;;;5048821;28;20174;-80
2023/04/22 07:02:21;;;;;;;16.52;14.73;;;;;;;;;;5051540;28;20049;-79
2023/04/22 07:04:47;;;;;;;17.13;14.43;;;;;;;;;;5060342;28;20044;-80
2023/04/22 07:07:13;;;;;;;19.08;14.68;;;;;;;;;;5063245;28;20476;-80
2023/04/22 07:09:39;;;;;;;16.67;14.05;;;;;;;;;;5067773;28;20361;-80
2023/04/22 07:12:05;;;;;;;17.60;14.85;;;;;;;;;;5071156;28;20145;-79
2023/04/22 07:14:32;;;;;;;18.40;15.00;;;;;;;;;;5043006;28;20040;-80
2023/04/22 07:16:58;;;;;;;18.48;14.57;;;;;;;;;;5063200;28;20044;-79
2023/04/22 07:19:24;;;;;;;16.00;13.63;;;;;;;;;;5070377;28;20040;-79
2023/04/22 07:21:50;;;;;;;19.00;16.02;;;;;;;;;;5046647;28;20434;-79
2023/04/22 07:24:16;;;;;;;16.25;14.07;;;;;;;;;;5054274;28;20068;-79
2023/04/22 07:26:43;;;;;;;18.23;14.40;;;;;;;;;;5046708;28;20072;-79
2023/04/22 07:29:11;;;;;;;17.58;15.55;;;;;;;;;;5055112;28;20507;-80
2023/04/22 07:31:37;;;;;;;18.15;14.85;;;;;;;;;;5040605;28;20105;-80
2023/04/22 07:34:03;;;;;;;18.75;15.55;;;;;;;;;;5058198;28;20048;-79
2023/04/22 07:36:31;;;;;;;21.25;17.52;;;;;;;;;;5061758;28;20044;-79
2023/04/22 07:38:57;;;;;;;22.90;18.23;;;;;;;;;;5048859;28;20056;-79
2023/04/22 07:41:23;;;;;;;18.30;15.43;;;;;;;;;;5068373;28;20044;-79
2023/04/22 07:43:50;;;;;;;19.85;16.25;;;;;;;;;;5055285;28;20049;-79
2023/04/22 07:46:16;;;;;;;19.50;15.48;;;;;;;;;;5035870;28;20327;-80
2023/04/22 07:48:42;;;;;;;18.05;15.75;;;;;;;;;;5057173;28;20389;-80
2023/04/22 07:51:08;;;;;;;19.33;14.77;;;;;;;;;;5054908;28;20037;-79
2023/04/22 07:53:34;;;;;;;20.55;16.20;;;;;;;;;;5047304;28;20504;-80
2023/04/22 07:56:01;;;;;;;17.52;15.43;;;;;;;;;;5061754;28;20039;-80
2023/04/22 07:58:27;;;;;;;17.98;15.52;;;;;;;;;;5043320;28;20060;-80
2023/04/22 08:00:53;;;;;;;20.67;15.70;;;;;;;;;;5059101;28;20107;-79
2023/04/22 08:03:19;;;;;;;19.83;15.65;;;;;;;;;;5064806;28;20131;-79
2023/04/22 08:05:45;;;;;;;16.90;15.18;;;;;;;;;;5044294;28;20583;-79
2023/04/22 08:08:11;;;;;;;16.98;15.15;;;;;;;;;;5038034;28;20054;-79
2023/04/22 08:10:37;;;;;;;18.23;15.38;;;;;;;;;;5062753;28;20056;-80
2023/04/22 08:13:03;;;;;;;18.63;15.48;;;;;;;;;;5055207;28;20036;-79
2023/04/22 08:15:29;;;;;;;28.83;21.80;;;;;;;;;;5043528;28;20458;-80
2023/04/22 08:17:55;;;;;;;21.23;16.73;;;;;;;;;;5067552;28;20048;-79
2023/04/22 08:20:21;;;;;;;18.67;15.80;;;;;;;;;;5034465;28;20124;-80
2023/04/22 08:22:49;;;;;;;19.17;15.50;;;;;;;;;;5041930;28;20051;-80
2023/04/22 08:25:15;;;;;;;18.98;16.02;;;;;;;;;;5062102;28;20364;-80
2023/04/22 08:27:41;;;;;;;20.08;16.90;;;;;;;;;;5062766;28;20516;-80
2023/04/22 08:30:07;;;;;;;22.00;17.73;;;;;;;;;;5042820;28;20131;-80
2023/04/22 08:32:33;;;;;;;21.80;16.85;;;;;;;;;;5035499;28;20052;-80
2023/04/22 08:34:59;;;;;;;18.42;15.63;;;;;;;;;;5050922;28;20047;-80
2023/04/22 08:37:26;;;;;;;17.40;15.45;;;;;;;;;;5033438;28;20056;-80
2023/04/22 08:39:52;;;;;;;18.85;15.48;;;;;;;;;;5061462;28;20032;-80
2023/04/22 08:42:20;;;;;;;19.05;16.73;;;;;;;;;;5036323;28;20060;-80
2023/04/22 08:44:46;;;;;;;20.38;17.25;;;;;;;;;;5035273;28;20040;-80
2023/04/22 08:47:13;;;;;;;19.50;17.33;;;;;;;;;;5036288;28;20512;-80
2023/04/22 08:49:40;;;;;;;18.52;16.52;;;;;;;;;;5063295;28;20048;-80
2023/04/22 08:52:08;;;;;;;20.25;16.77;;;;;;;;;;5053021;28;20048;-79
2023/04/22 08:54:36;;;;;;;19.90;16.23;;;;;;;;;;5032801;28;20045;-80
2023/04/22 08:57:02;;;;;;;18.65;16.08;;;;;;;;;;5040805;28;20064;-80
2023/04/22 08:59:28;;;;;;;30.95;24.73;;;;;;;;;;5060612;28;20455;-79
2023/04/22 09:01:54;;;;;;;30.75;24.38;;;;;;;;;;5054905;28;20048;-80
2023/04/22 09:04:21;;;;;;;20.60;16.77;;;;;;;;;;5054479;28;20041;-80
2023/04/22 09:06:47;;;;;;;24.88;17.08;;;;;;;;;;5059094;28;20068;-81
2023/04/22 09:09:13;;;;;;;20.13;16.27;;;;;;;;;;5036396;28;20126;-80
2023/04/22 09:11:39;;;;;;;19.70;16.15;;;;;;;;;;5044308;28;20087;-80
2023/04/22 09:14:06;;;;;;;19.08;16.05;;;;;;;;;;5057516;28;20047;-78
2023/04/22 09:16:33;;;;;;;21.20;16.33;;;;;;;;;;5035920;28;20564;-77
2023/04/22 09:18:59;;;;;;;20.00;16.13;;;;;;;;;;5052475;28;20044;-78
2023/04/22 09:21:30;;;;;;;22.05;16.75;;;;;;;;;;5051870;28;21495;-78
2023/04/22 09:23:58;;;;;;;22.58;16.42;;;;;;;;;;5044983;28;20052;-78
2023/04/22 09:26:25;;;;;;;20.27;15.13;;;;;;;;;;5055480;28;20087;-78
2023/04/22 09:28:53;;;;;;;19.35;14.95;;;;;;;;;;5051771;28;20041;-78
2023/04/22 09:31:23;;;;;;;19.40;15.80;;;;;;;;;;5055324;28;20040;-78
2023/04/22 09:33:50;;;;;;;20.80;15.15;;;;;;;;;;5050866;28;20033;-78
2023/04/22 09:36:16;;;;;;;19.63;15.43;;;;;;;;;;5039081;28;20057;-79
2023/04/22 09:38:51;;;;;;;20.13;16.10;;;;;;;;;;5064008;28;20045;-79
2023/04/22 09:41:17;;;;;;;19.75;15.30;;;;;;;;;;5034785;28;20049;-78
2023/04/22 09:43:44;;;;;;;23.65;15.90;;;;;;;;;;5049097;28;20048;-79
2023/04/22 09:46:10;;;;;;;19.08;16.20;;;;;;;;;;5033095;28;20037;-78
2023/04/22 09:48:42;;;;;;;21.38;16.55;;;;;;;;;;5059102;28;20041;-79
2023/04/22 09:51:17;;;;;;;19.27;15.63;;;;;;;;;;5055241;28;20117;-78
2023/04/22 09:53:43;;;;;;;18.70;16.70;;;;;;;;;;5061459;28;20044;-79
2023/04/22 09:56:10;;;;;;;19.45;14.63;;;;;;;;;;5060943;28;20041;-79
2023/04/22 09:58:39;;;;;;;20.15;16.80;;;;;;;;;;5054862;28;20059;-79
2023/04/22 10:01:05;;;;;;;20.55;17.00;;;;;;;;;;5038426;28;20069;-79
2023/04/22 10:03:31;;;;;;;17.85;15.95;;;;;;;;;;5034552;28;20131;-79
2023/04/22 10:05:58;;;;;;;19.25;16.42;;;;;;;;;;5053070;28;20048;-78
2023/04/22 10:08:24;;;;;;;19.80;16.52;;;;;;;;;;5034013;28;20048;-78
2023/04/22 10:10:50;;;;;;;19.00;15.65;;;;;;;;;;5035833;28;20037;-78
2023/04/22 10:13:16;;;;;;;19.40;16.38;;;;;;;;;;5042353;28;20052;-78
2023/04/22 10:15:49;;;;;;;19.60;16.08;;;;;;;;;;5044767;28;20033;-79
2023/04/22 10:18:23;;;;;;;18.35;15.70;;;;;;;;;;5054583;28;20448;-78
2023/04/22 10:20:50;;;;;;;18.50;16.02;;;;;;;;;;5041369;28;20099;-79
2023/04/22 10:23:20;;;;;;;19.30;16.10;;;;;;;;;;5054622;28;20041;-78
2023/04/22 10:25:53;;;;;;;18.85;16.02;;;;;;;;;;5060299;28;20443;-79
2023/04/22 10:28:20;;;;;;;20.52;15.68;;;;;;;;;;5042491;28;20056;-79
2023/04/22 10:30:46;;;;;;;17.63;15.40;;;;;;;;;;5053163;28;20559;-78
2023/04/22 10:33:30;;;;;;;19.27;15.68;;;;;;;;;;5032944;28;20041;-80
2023/04/22 10:35:56;;;;;;;;;;;;;;;;;;5040961;28;20051;-80
2023/04/22 10:38:22;;;;;;;19.88;15.38;;;;;;;;;;5041488;28;19925;-80
2023/04/22 10:41:02;;;;;;;18.52;15.65;;;;;;;;;;5037680;28;20457;-80
2023/04/22 10:43:44;;;;;;;19.20;15.40;;;;;;;;;;5056505;28;20064;-79
2023/04/22 10:46:31;;;;;;;17.65;15.05;;;;;;;;;;5053374;28;20137;-79
2023/04/22 10:48:57;;;;;;;17.98;14.77;;;;;;;;;;5033891;28;20037;-79
2023/04/22 10:51:41;;;;;;;17.95;14.63;;;;;;;;;;5056214;28;20133;-79
2023/04/22 10:54:27;;;;;;;18.00;15.45;;;;;;;;;;5052540;28;20083;-79
2023/04/22 10:57:07;;;;;;;17.60;14.90;;;;;;;;;;5031704;28;20072;-79
2023/04/22 10:59:34;;;;;;;19.17;14.52;;;;;;;;;;5036702;28;20053;-80
2023/04/22 11:02:05;;;;;;;17.90;14.35;;;;;;;;;;5035059;28;20075;-79
2023/04/22 11:04:31;;;;;;;19.63;15.15;;;;;;;;;;5036810;28;20139;-78
2023/04/22 11:07:13;;;;;;;16.80;14.13;;;;;;;;;;5034378;28;20962;-79
2023/04/22 11:09:40;;;;;;;17.25;14.10;;;;;;;;;;5062659;28;20109;-79
2023/04/22 11:12:25;;;;;;;17.67;13.70;;;;;;;;;;5035933;28;20102;-79
2023/04/22 11:14:51;;;;;;;18.13;15.07;;;;;;;;;;5040923;28;20127;-77
2023/04/22 11:17:18;;;;;;;16.52;13.77;;;;;;;;;;5054462;28;20686;-78
2023/04/22 11:19:46;;;;;;;16.58;14.25;;;;;;;;;;5039399;28;20128;-78
2023/04/22 11:22:12;;;;;;;15.82;12.20;;;;;;;;;;5052410;28;20055;-77
2023/04/22 11:24:38;;;;;;;16.42;13.25;;;;;;;;;;5042327;28;20064;-76
2023/04/22 11:27:05;;;;;;;17.02;13.45;;;;;;;;;;5058660;28;20074;-77
2023/04/22 11:29:31;;;;;;;16.00;13.00;;;;;;;;;;5055716;28;20135;-76
2023/04/22 11:31:57;;;;;;;14.18;12.50;;;;;;;;;;5037677;28;20044;-75
2023/04/22 11:34:23;;;;;;;14.75;12.35;;;;;;;;;;5049725;28;20041;-76
2023/04/22 11:36:49;;;;;;;13.77;11.52;;;;;;;;;;5042158;28;20055;-76
2023/04/22 11:39:17;;;;;;;14.80;12.18;;;;;;;;;;5040144;28;20048;-75
2023/04/22 11:41:43;;;;;;;14.25;11.93;;;;;;;;;;5057074;28;20981;-76
2023/04/22 11:44:09;;;;;;;13.05;11.43;;;;;;;;;;5053492;28;21658;-76
2023/04/22 11:46:38;;;;;;;14.35;12.43;;;;;;;;;;5041793;28;20040;-75
2023/04/22 11:49:17;;;;;;;12.80;11.38;;;;;;;;;;5035865;28;20076;-74
2023/04/22 11:51:51;;;;;;;16.20;12.02;;;;;;;;;;5057468;28;20107;-74
2023/04/22 11:54:17;;;;;;;13.77;11.20;;;;;;;;;;5063047;28;20101;-74
2023/04/22 11:56:43;;;;;;;13.45;12.05;;;;;;;;;;5043583;28;20118;-73
2023/04/22 11:59:09;;;;;;;15.15;12.60;;;;;;;;;;5034669;28;20512;-73
2023/04/22 12:01:35;;;;;;;15.75;12.40;;;;;;;;;;5039084;28;20497;-72
2023/04/22 12:04:01;;;;;;;13.57;11.52;;;;;;;;;;5042918;28;20131;-73
2023/04/22 12:06:31;;;;;;;14.40;12.60;;;;;;;;;;5062197;28;20131;-72
2023/04/22 12:08:59;;;;;;;17.70;14.93;;;;;;;;;;5034415;28;20457;-73
2023/04/22 12:11:25;;;;;;;16.08;13.45;;;;;;;;;;5036708;28;20523;-73
2023/04/22 12:13:53;;;;;;;16.55;14.05;;;;;;;;;;5065686;28;20076;-73
2023/04/22 12:16:19;;;;;;;16.85;13.82;;;;;;;;;;5059630;28;20074;-73
2023/04/22 12:18:48;;;;;;;17.70;15.45;;;;;;;;;;5067689;28;20377;-73
2023/04/22 12:21:16;;;;;;;18.20;15.13;;;;;;;;;;5057056;28;20806;-73
2023/04/22 12:23:43;;;;;;;16.73;14.00;;;;;;;;;;5061987;28;20049;-74
2023/04/22 12:26:09;;;;;;;15.77;13.02;;;;;;;;;;5054728;28;20524;-74
2023/04/22 12:28:37;;;;;;;16.13;13.07;;;;;;;;;;5037244;28;20057;-73
2023/04/22 12:31:03;;;;;;;14.50;12.48;;;;;;;;;;5059711;28;20072;-74
2023/04/22 12:33:29;;;;;;;15.38;13.30;;;;;;;;;;5067146;28;20096;-74
2023/04/22 12:35:55;;;;;;;14.07;12.40;;;;;;;;;;5049450;28;20049;-74
2023/04/22 12:38:21;;;;;;;14.40;11.00;;;;;;;;;;5054828;28;20053;-74
2023/04/22 12:40:47;;;;;;;13.63;11.30;;;;;;;;;;5059317;28;20114;-72
2023/04/22 12:43:13;;;;;;;12.73;10.07;;;;;;;;;;5063104;28;20036;-73
2023/04/22 12:45:40;;;;;;;9.65;8.25;;;;;;;;;;5059737;28;20424;-73
2023/04/22 12:48:06;;;;;;;10.32;8.68;;;;;;;;;;5056966;28;20404;-73
2023/04/22 12:50:32;;;;;;;8.82;7.18;;;;;;;;;;5057075;28;20041;-73
2023/04/22 12:52:58;;;;;;;8.35;6.80;;;;;;;;;;5043543;28;20057;-73
2023/04/22 12:55:24;;;;;;;9.25;7.30;;;;;;;;;;5051382;28;20053;-73
2023/04/22 12:57:51;;;;;;;12.10;7.95;;;;;;;;;;5038723;28;20056;-74
2023/04/22 13:00:17;;;;;;;9.93;8.30;;;;;;;;;;5038948;28;20072;-74
2023/04/22 13:02:44;;;;;;;11.70;9.23;;;;;;;;;;5055867;28;20051;-73
2023/04/22 13:05:11;;;;;;;13.27;9.88;;;;;;;;;;5039544;28;20037;-73
2023/04/22 13:07:38;;;;;;;16.48;13.25;;;;;;;;;;5051311;28;20494;-73
2023/04/22 13:10:04;;;;;;;16.95;14.30;;;;;;;;;;5035706;28;20843;-73
2023/04/22 13:12:31;;;;;;;16.15;13.40;;;;;;;;;;5063001;28;20171;-73
2023/04/22 13:14:57;;;;;;;16.00;13.80;;;;;;;;;;5033212;28;20135;-73
2023/04/22 13:17:23;;;;;;;15.77;13.65;;;;;;;;;;5040490;28;20106;-73
2023/04/22 13:19:50;;;;;;;17.52;13.35;;;;;;;;;;5056800;28;20067;-73
2023/04/22 13:22:16;;;;;;;16.23;12.50;;;;;;;;;;5035778;28;20056;-73
2023/04/22 13:24:42;;;;;;;15.15;11.90;;;;;;;;;;5037029;28;20080;-72
2023/04/22 13:27:08;;;;;;;16.02;12.07;;;;;;;;;;5054786;28;20399;-73
2023/04/22 13:29:35;;;;;;;15.20;13.00;;;;;;;;;;5057551;28;20215;-73
2023/04/22 13:32:02;;;;;;;17.27;13.73;;;;;;;;;;5034228;28;20056;-74
2023/04/22 13:34:28;;;;;;;16.83;14.02;;;;;;;;;;5039620;28;20434;-73
2023/04/22 13:36:54;;;;;;;19.83;14.30;;;;;;;;;;5056892;28;20047;-73
2023/04/22 13:39:21;;;;;;;18.25;14.20;;;;;;;;;;5053002;28;20040;-73
2023/04/22 13:41:47;;;;;;;18.27;14.38;;;;;;;;;;5043414;28;20305;-73
2023/04/22 13:44:13;;;;;;;16.40;13.88;;;;;;;;;;5046810;28;20123;-73
2023/04/22 13:46:40;;;;;;;17.42;13.88;;;;;;;;;;5045848;28;20036;-73
2023/04/22 13:49:06;;;;;;;15.98;13.05;;;;;;;;;;5040005;28;20041;-72
2023/04/22 13:51:32;;;;;;;18.00;13.80;;;;;;;;;;5038647;28;20483;-73
2023/04/22 13:53:59;;;;;;;17.25;12.75;;;;;;;;;;5064015;28;20048;-72
2023/04/22 13:56:25;;;;;;;18.50;13.43;;;;;;;;;;5036553;28;20076;-72
2023/04/22 13:58:51;;;;;;;15.05;12.95;;;;;;;;;;5041199;28;20133;-72
2023/04/22 14:01:18;;;;;;;16.70;12.10;;;;;;;;;;5052587;28;20048;-73
2023/04/22 14:03:44;;;;;;;16.80;12.27;;;;;;;;;;5059576;28;20045;-72
2023/04/22 14:06:10;;;;;;;16.27;11.82;;;;;;;;;;5057752;28;20396;-72
2023/04/22 14:08:36;;;;;;;19.65;13.32;;;;;;;;;;5039133;28;20043;-72
2023/04/22 14:11:02;;;;;;;18.35;13.98;;;;;;;;;;5059154;28;20037;-72
2023/04/22 14:13:29;;;;;;;19.60;16.20;;;;;;;;;;5054551;28;20059;-72
2023/04/22 14:15:55;;;;;;;20.35;16.45;;;;;;;;;;5060941;28;20048;-72
2023/04/22 14:18:22;;;;;;;23.05;18.30;;;;;;;;;;5057704;28;20044;-72
2023/04/22 14:20:48;;;;;;;28.13;18.25;;;;;;;;;;5042827;28;20457;-72